Terminal Aerodrome Forecast
Issued by NWS Spokane, WA

Home | Current Version | Previous Version | Text Only | Print | Product List | Glossary On
Versions: 1 2 3 4 5 6 7 8 9 10 11 12 13 14
000
FTUS46 KOTX 190520
TAFEAT
TAF
KEAT 190520Z 1906/2006 VRB04KT P6SM SCT015 OVC100
     FM192200 14005KT P6SM OVC080
     FM200300 09004KT P6SM -RA OVC070=

USA.gov is the U.S. government's official web portal to all federal, state and local government web resources and services.